sensor_id;sensor_type;location;lat;lon;timestamp;P1;durP1;ratioP1;P2;durP2;ratioP2
44995;SDS011;30729;49.486;10.792;2022-09-09T00:00:37;3.70;;;1.50;;
44995;SDS011;30729;49.486;10.792;2022-09-09T00:03:24;9.60;;;1.77;;
44995;SDS011;30729;49.486;10.792;2022-09-09T00:08:26;3.35;;;1.65;;
44995;SDS011;30729;49.486;10.792;2022-09-09T00:11:04;6.18;;;1.90;;
44995;SDS011;30729;49.486;10.792;2022-09-09T00:13:42;6.95;;;1.67;;
44995;SDS011;30729;49.486;10.792;2022-09-09T00:16:19;5.07;;;1.83;;
44995;SDS011;30729;49.486;10.792;2022-09-09T00:22:31;7.30;;;2.08;;
44995;SDS011;30729;49.486;10.792;2022-09-09T00:24:43;6.43;;;1.98;;
44995;SDS011;30729;49.486;10.792;2022-09-09T00:29:53;5.45;;;1.73;;
44995;SDS011;30729;49.486;10.792;2022-09-09T00:32:22;10.30;;;4.80;;
44995;SDS011;30729;49.486;10.792;2022-09-09T00:34:55;5.95;;;2.80;;
44995;SDS011;30729;49.486;10.792;2022-09-09T00:37:25;7.55;;;2.20;;
44995;SDS011;30729;49.486;10.792;2022-09-09T00:39:51;5.50;;;1.88;;
44995;SDS011;30729;49.486;10.792;2022-09-09T00:42:36;5.22;;;2.17;;
44995;SDS011;30729;49.486;10.792;2022-09-09T00:47:51;6.70;;;1.75;;
44995;SDS011;30729;49.486;10.792;2022-09-09T00:50:35;5.63;;;1.95;;
44995;SDS011;30729;49.486;10.792;2022-09-09T00:58:26;5.97;;;2.00;;
44995;SDS011;30729;49.486;10.792;2022-09-09T01:01:13;5.90;;;1.98;;
44995;SDS011;30729;49.486;10.792;2022-09-09T01:11:42;4.93;;;2.15;;
44995;SDS011;30729;49.486;10.792;2022-09-09T01:14:38;4.78;;;1.80;;
44995;SDS011;30729;49.486;10.792;2022-09-09T01:17:17;4.00;;;1.83;;
44995;SDS011;30729;49.486;10.792;2022-09-09T01:19:50;5.03;;;1.83;;
44995;SDS011;30729;49.486;10.792;2022-09-09T01:22:34;4.93;;;1.75;;
44995;SDS011;30729;49.486;10.792;2022-09-09T01:28:08;5.80;;;2.00;;
44995;SDS011;30729;49.486;10.792;2022-09-09T01:30:38;5.05;;;1.98;;
44995;SDS011;30729;49.486;10.792;2022-09-09T01:33:05;7.60;;;2.15;;
44995;SDS011;30729;49.486;10.792;2022-09-09T01:38:07;6.50;;;2.20;;
44995;SDS011;30729;49.486;10.792;2022-09-09T01:40:32;4.63;;;1.83;;
44995;SDS011;30729;49.486;10.792;2022-09-09T01:42:58;5.60;;;2.00;;
44995;SDS011;30729;49.486;10.792;2022-09-09T01:45:24;6.20;;;2.00;;
44995;SDS011;30729;49.486;10.792;2022-09-09T01:47:51;3.28;;;1.60;;
44995;SDS011;30729;49.486;10.792;2022-09-09T01:50:17;2.45;;;1.50;;
44995;SDS011;30729;49.486;10.792;2022-09-09T01:52:44;6.93;;;1.95;;
44995;SDS011;30729;49.486;10.792;2022-09-09T01:55:15;6.88;;;2.70;;
44995;SDS011;30729;49.486;10.792;2022-09-09T02:00:21;5.70;;;2.20;;
44995;SDS011;30729;49.486;10.792;2022-09-09T02:05:27;5.15;;;1.90;;
44995;SDS011;30729;49.486;10.792;2022-09-09T02:07:59;5.80;;;2.72;;
44995;SDS011;30729;49.486;10.792;2022-09-09T02:10:32;4.93;;;1.90;;
44995;SDS011;30729;49.486;10.792;2022-09-09T02:13:04;6.45;;;1.77;;
44995;SDS011;30729;49.486;10.792;2022-09-09T02:18:16;6.57;;;2.40;;
44995;SDS011;30729;49.486;10.792;2022-09-09T02:20:47;6.63;;;2.38;;
44995;SDS011;30729;49.486;10.792;2022-09-09T02:23:13;4.65;;;2.10;;
44995;SDS011;30729;49.486;10.792;2022-09-09T02:25:40;5.10;;;2.10;;
44995;SDS011;30729;49.486;10.792;2022-09-09T02:28:07;6.50;;;2.30;;
44995;SDS011;30729;49.486;10.792;2022-09-09T02:30:34;7.07;;;2.13;;
44995;SDS011;30729;49.486;10.792;2022-09-09T02:33:03;5.40;;;2.00;;
44995;SDS011;30729;49.486;10.792;2022-09-09T02:35:32;7.15;;;2.47;;
44995;SDS011;30729;49.486;10.792;2022-09-09T02:38:02;5.70;;;2.25;;
44995;SDS011;30729;49.486;10.792;2022-09-09T02:40:31;11.40;;;2.40;;
44995;SDS011;30729;49.486;10.792;2022-09-09T02:42:56;5.53;;;2.20;;
44995;SDS011;30729;49.486;10.792;2022-09-09T02:45:27;5.57;;;2.10;;
44995;SDS011;30729;49.486;10.792;2022-09-09T02:51:27;5.90;;;2.00;;
44995;SDS011;30729;49.486;10.792;2022-09-09T02:53:43;7.65;;;2.15;;
44995;SDS011;30729;49.486;10.792;2022-09-09T02:56:29;7.47;;;2.28;;
44995;SDS011;30729;49.486;10.792;2022-09-09T02:58:58;6.57;;;2.28;;
44995;SDS011;30729;49.486;10.792;2022-09-09T03:01:24;4.15;;;2.50;;
44995;SDS011;30729;49.486;10.792;2022-09-09T03:03:50;4.63;;;1.80;;
44995;SDS011;30729;49.486;10.792;2022-09-09T03:06:15;6.65;;;2.22;;
44995;SDS011;30729;49.486;10.792;2022-09-09T03:08:41;5.38;;;2.10;;
44995;SDS011;30729;49.486;10.792;2022-09-09T03:11:07;7.80;;;2.25;;
44995;SDS011;30729;49.486;10.792;2022-09-09T03:13:34;7.07;;;2.53;;
44995;SDS011;30729;49.486;10.792;2022-09-09T03:15:59;3.97;;;1.85;;
44995;SDS011;30729;49.486;10.792;2022-09-09T03:18:24;5.47;;;2.17;;
44995;SDS011;30729;49.486;10.792;2022-09-09T03:20:50;6.32;;;2.08;;
44995;SDS011;30729;49.486;10.792;2022-09-09T03:23:16;5.65;;;2.28;;
44995;SDS011;30729;49.486;10.792;2022-09-09T03:25:48;5.88;;;1.90;;
44995;SDS011;30729;49.486;10.792;2022-09-09T03:28:14;6.35;;;2.03;;
44995;SDS011;30729;49.486;10.792;2022-09-09T03:30:40;3.95;;;1.90;;
44995;SDS011;30729;49.486;10.792;2022-09-09T03:33:05;4.43;;;2.00;;
44995;SDS011;30729;49.486;10.792;2022-09-09T03:35:31;4.72;;;2.13;;
44995;SDS011;30729;49.486;10.792;2022-09-09T03:37:56;4.43;;;2.00;;
44995;SDS011;30729;49.486;10.792;2022-09-09T03:40:22;4.88;;;1.90;;
44995;SDS011;30729;49.486;10.792;2022-09-09T03:42:48;4.88;;;1.90;;
44995;SDS011;30729;49.486;10.792;2022-09-09T03:45:13;6.32;;;2.10;;
44995;SDS011;30729;49.486;10.792;2022-09-09T03:47:39;6.07;;;2.15;;
44995;SDS011;30729;49.486;10.792;2022-09-09T03:50:07;6.03;;;2.10;;
44995;SDS011;30729;49.486;10.792;2022-09-09T03:52:36;5.55;;;2.17;;
44995;SDS011;30729;49.486;10.792;2022-09-09T03:55:02;6.43;;;2.28;;
44995;SDS011;30729;49.486;10.792;2022-09-09T03:57:28;4.43;;;1.73;;
44995;SDS011;30729;49.486;10.792;2022-09-09T03:59:54;3.83;;;1.75;;
44995;SDS011;30729;49.486;10.792;2022-09-09T04:02:20;4.80;;;2.00;;
44995;SDS011;30729;49.486;10.792;2022-09-09T04:04:46;4.63;;;1.77;;
44995;SDS011;30729;49.486;10.792;2022-09-09T04:07:11;5.53;;;2.03;;
44995;SDS011;30729;49.486;10.792;2022-09-09T04:09:37;5.88;;;1.90;;
44995;SDS011;30729;49.486;10.792;2022-09-09T04:12:03;5.30;;;1.85;;
44995;SDS011;30729;49.486;10.792;2022-09-09T04:14:29;3.75;;;1.75;;
44995;SDS011;30729;49.486;10.792;2022-09-09T04:16:54;7.03;;;2.08;;
44995;SDS011;30729;49.486;10.792;2022-09-09T04:19:23;5.70;;;2.13;;
44995;SDS011;30729;49.486;10.792;2022-09-09T04:21:48;4.72;;;1.90;;
44995;SDS011;30729;49.486;10.792;2022-09-09T04:24:15;4.90;;;1.70;;
44995;SDS011;30729;49.486;10.792;2022-09-09T04:26:41;8.20;;;2.90;;
44995;SDS011;30729;49.486;10.792;2022-09-09T04:29:07;5.93;;;2.10;;
44995;SDS011;30729;49.486;10.792;2022-09-09T04:31:32;6.03;;;2.35;;
44995;SDS011;30729;49.486;10.792;2022-09-09T04:33:58;6.22;;;1.75;;
44995;SDS011;30729;49.486;10.792;2022-09-09T04:36:27;4.18;;;1.65;;
44995;SDS011;30729;49.486;10.792;2022-09-09T04:38:52;5.18;;;2.00;;
44995;SDS011;30729;49.486;10.792;2022-09-09T04:41:18;6.75;;;1.77;;
44995;SDS011;30729;49.486;10.792;2022-09-09T04:43:43;7.35;;;2.15;;
44995;SDS011;30729;49.486;10.792;2022-09-09T04:46:09;5.72;;;2.20;;
44995;SDS011;30729;49.486;10.792;2022-09-09T04:48:34;6.13;;;2.05;;
44995;SDS011;30729;49.486;10.792;2022-09-09T04:51:01;4.57;;;2.10;;
44995;SDS011;30729;49.486;10.792;2022-09-09T04:53:31;3.63;;;1.70;;
44995;SDS011;30729;49.486;10.792;2022-09-09T04:56:05;4.88;;;1.80;;
44995;SDS011;30729;49.486;10.792;2022-09-09T04:58:32;4.82;;;1.70;;
44995;SDS011;30729;49.486;10.792;2022-09-09T05:01:08;6.95;;;2.28;;
44995;SDS011;30729;49.486;10.792;2022-09-09T05:03:38;5.85;;;1.90;;
44995;SDS011;30729;49.486;10.792;2022-09-09T05:08:35;7.40;;;2.00;;
44995;SDS011;30729;49.486;10.792;2022-09-09T05:11:18;5.13;;;1.85;;
44995;SDS011;30729;49.486;10.792;2022-09-09T05:13:44;6.07;;;2.22;;
44995;SDS011;30729;49.486;10.792;2022-09-09T05:16:10;5.03;;;2.10;;
44995;SDS011;30729;49.486;10.792;2022-09-09T05:18:36;8.38;;;2.85;;
44995;SDS011;30729;49.486;10.792;2022-09-09T05:21:02;4.30;;;1.75;;
44995;SDS011;30729;49.486;10.792;2022-09-09T05:23:28;5.30;;;1.83;;
44995;SDS011;30729;49.486;10.792;2022-09-09T05:25:54;5.13;;;1.92;;
44995;SDS011;30729;49.486;10.792;2022-09-09T05:28:21;6.07;;;2.13;;
44995;SDS011;30729;49.486;10.792;2022-09-09T05:30:54;4.85;;;1.70;;
44995;SDS011;30729;49.486;10.792;2022-09-09T05:33:29;6.72;;;2.38;;
44995;SDS011;30729;49.486;10.792;2022-09-09T05:36:02;6.68;;;2.78;;
44995;SDS011;30729;49.486;10.792;2022-09-09T05:38:35;5.93;;;2.63;;
44995;SDS011;30729;49.486;10.792;2022-09-09T05:41:01;6.03;;;2.05;;
44995;SDS011;30729;49.486;10.792;2022-09-09T05:43:27;10.32;;;2.72;;
44995;SDS011;30729;49.486;10.792;2022-09-09T05:46:04;6.55;;;2.90;;
44995;SDS011;30729;49.486;10.792;2022-09-09T05:48:42;5.72;;;2.00;;
44995;SDS011;30729;49.486;10.792;2022-09-09T05:51:12;5.10;;;1.95;;
44995;SDS011;30729;49.486;10.792;2022-09-09T05:53:42;6.40;;;1.77;;
44995;SDS011;30729;49.486;10.792;2022-09-09T05:56:09;11.48;;;2.53;;
44995;SDS011;30729;49.486;10.792;2022-09-09T05:58:36;5.00;;;1.52;;
44995;SDS011;30729;49.486;10.792;2022-09-09T06:01:06;7.45;;;1.83;;
44995;SDS011;30729;49.486;10.792;2022-09-09T06:03:36;9.10;;;2.80;;
44995;SDS011;30729;49.486;10.792;2022-09-09T06:06:04;5.70;;;2.17;;
44995;SDS011;30729;49.486;10.792;2022-09-09T06:08:32;5.60;;;2.30;;
44995;SDS011;30729;49.486;10.792;2022-09-09T06:11:05;7.00;;;2.35;;
44995;SDS011;30729;49.486;10.792;2022-09-09T06:13:32;6.45;;;2.03;;
44995;SDS011;30729;49.486;10.792;2022-09-09T06:15:58;7.38;;;2.00;;
44995;SDS011;30729;49.486;10.792;2022-09-09T06:18:25;6.78;;;1.80;;
44995;SDS011;30729;49.486;10.792;2022-09-09T06:20:57;9.05;;;3.03;;
44995;SDS011;30729;49.486;10.792;2022-09-09T06:23:26;5.60;;;1.65;;
44995;SDS011;30729;49.486;10.792;2022-09-09T06:26:00;4.43;;;1.33;;
44995;SDS011;30729;49.486;10.792;2022-09-09T06:28:31;5.28;;;1.50;;
44995;SDS011;30729;49.486;10.792;2022-09-09T06:31:00;7.65;;;1.55;;
44995;SDS011;30729;49.486;10.792;2022-09-09T06:33:30;6.03;;;1.45;;
44995;SDS011;30729;49.486;10.792;2022-09-09T06:35:56;6.13;;;1.50;;
44995;SDS011;30729;49.486;10.792;2022-09-09T06:38:23;7.72;;;1.92;;
44995;SDS011;30729;49.486;10.792;2022-09-09T06:40:52;8.88;;;1.73;;
44995;SDS011;30729;49.486;10.792;2022-09-09T06:43:20;5.88;;;1.70;;
44995;SDS011;30729;49.486;10.792;2022-09-09T06:46:00;6.05;;;1.30;;
44995;SDS011;30729;49.486;10.792;2022-09-09T06:48:27;4.57;;;1.58;;
44995;SDS011;30729;49.486;10.792;2022-09-09T06:53:32;3.63;;;1.02;;
44995;SDS011;30729;49.486;10.792;2022-09-09T06:56:02;11.93;;;1.77;;
44995;SDS011;30729;49.486;10.792;2022-09-09T06:58:42;3.72;;;1.30;;
44995;SDS011;30729;49.486;10.792;2022-09-09T07:01:09;5.97;;;1.50;;
44995;SDS011;30729;49.486;10.792;2022-09-09T07:03:37;4.00;;;1.38;;
44995;SDS011;30729;49.486;10.792;2022-09-09T07:06:03;8.88;;;1.50;;
44995;SDS011;30729;49.486;10.792;2022-09-09T07:08:30;4.32;;;1.30;;
44995;SDS011;30729;49.486;10.792;2022-09-09T07:11:01;5.00;;;1.60;;
44995;SDS011;30729;49.486;10.792;2022-09-09T07:13:31;5.38;;;1.42;;
44995;SDS011;30729;49.486;10.792;2022-09-09T07:16:06;5.22;;;1.10;;
44995;SDS011;30729;49.486;10.792;2022-09-09T07:18:32;4.13;;;1.30;;
44995;SDS011;30729;49.486;10.792;2022-09-09T07:20:58;6.53;;;1.50;;
44995;SDS011;30729;49.486;10.792;2022-09-09T07:23:24;4.70;;;1.10;;
44995;SDS011;30729;49.486;10.792;2022-09-09T07:25:49;4.13;;;1.17;;
44995;SDS011;30729;49.486;10.792;2022-09-09T07:28:15;5.40;;;1.05;;
44995;SDS011;30729;49.486;10.792;2022-09-09T07:30:41;4.97;;;1.17;;
44995;SDS011;30729;49.486;10.792;2022-09-09T07:33:08;2.85;;;1.02;;
44995;SDS011;30729;49.486;10.792;2022-09-09T07:35:34;6.85;;;2.08;;
44995;SDS011;30729;49.486;10.792;2022-09-09T07:38:02;5.63;;;1.48;;
44995;SDS011;30729;49.486;10.792;2022-09-09T07:40:29;4.00;;;0.90;;
44995;SDS011;30729;49.486;10.792;2022-09-09T07:42:55;4.03;;;1.00;;
44995;SDS011;30729;49.486;10.792;2022-09-09T07:45:21;6.70;;;1.30;;
44995;SDS011;30729;49.486;10.792;2022-09-09T07:47:46;5.20;;;1.67;;
44995;SDS011;30729;49.486;10.792;2022-09-09T07:50:13;4.88;;;1.30;;
44995;SDS011;30729;49.486;10.792;2022-09-09T07:52:40;4.38;;;1.00;;
44995;SDS011;30729;49.486;10.792;2022-09-09T07:55:06;5.78;;;1.15;;
44995;SDS011;30729;49.486;10.792;2022-09-09T07:57:31;6.78;;;1.30;;
44995;SDS011;30729;49.486;10.792;2022-09-09T07:59:57;4.45;;;0.85;;
44995;SDS011;30729;49.486;10.792;2022-09-09T08:02:23;4.10;;;0.90;;
44995;SDS011;30729;49.486;10.792;2022-09-09T08:04:50;3.58;;;1.10;;
44995;SDS011;30729;49.486;10.792;2022-09-09T08:07:16;1.08;;;0.60;;
44995;SDS011;30729;49.486;10.792;2022-09-09T08:09:42;4.95;;;0.85;;
44995;SDS011;30729;49.486;10.792;2022-09-09T08:12:09;3.97;;;0.80;;
44995;SDS011;30729;49.486;10.792;2022-09-09T08:14:35;3.45;;;0.80;;
44995;SDS011;30729;49.486;10.792;2022-09-09T08:17:01;3.25;;;0.60;;
44995;SDS011;30729;49.486;10.792;2022-09-09T08:19:27;3.40;;;0.90;;
44995;SDS011;30729;49.486;10.792;2022-09-09T08:21:55;5.88;;;0.77;;
44995;SDS011;30729;49.486;10.792;2022-09-09T08:24:20;4.78;;;1.08;;
44995;SDS011;30729;49.486;10.792;2022-09-09T08:26:47;5.05;;;0.93;;
44995;SDS011;30729;49.486;10.792;2022-09-09T08:29:15;2.60;;;0.85;;
44995;SDS011;30729;49.486;10.792;2022-09-09T08:34:11;6.20;;;0.93;;
44995;SDS011;30729;49.486;10.792;2022-09-09T08:36:38;4.07;;;1.10;;
44995;SDS011;30729;49.486;10.792;2022-09-09T08:39:07;4.57;;;1.27;;
44995;SDS011;30729;49.486;10.792;2022-09-09T08:41:43;2.63;;;0.80;;
44995;SDS011;30729;49.486;10.792;2022-09-09T08:52:37;3.53;;;0.75;;
44995;SDS011;30729;49.486;10.792;2022-09-09T08:57:51;5.03;;;0.83;;
44995;SDS011;30729;49.486;10.792;2022-09-09T09:00:18;4.35;;;1.30;;
44995;SDS011;30729;49.486;10.792;2022-09-09T09:02:57;6.82;;;1.17;;
44995;SDS011;30729;49.486;10.792;2022-09-09T09:05:27;6.70;;;1.17;;
44995;SDS011;30729;49.486;10.792;2022-09-09T09:10:48;4.20;;;1.10;;
44995;SDS011;30729;49.486;10.792;2022-09-09T09:16:07;4.18;;;0.90;;
44995;SDS011;30729;49.486;10.792;2022-09-09T09:18:42;6.10;;;0.95;;
44995;SDS011;30729;49.486;10.792;2022-09-09T09:21:11;4.38;;;1.38;;
44995;SDS011;30729;49.486;10.792;2022-09-09T09:24:00;7.03;;;0.95;;
44995;SDS011;30729;49.486;10.792;2022-09-09T09:26:29;7.13;;;1.02;;
44995;SDS011;30729;49.486;10.792;2022-09-09T09:28:57;2.85;;;1.00;;
44995;SDS011;30729;49.486;10.792;2022-09-09T09:31:24;4.40;;;1.02;;
44995;SDS011;30729;49.486;10.792;2022-09-09T09:33:54;5.10;;;1.08;;
44995;SDS011;30729;49.486;10.792;2022-09-09T09:36:23;4.93;;;0.65;;
44995;SDS011;30729;49.486;10.792;2022-09-09T09:38:58;2.75;;;0.60;;
44995;SDS011;30729;49.486;10.792;2022-09-09T09:41:32;5.05;;;0.88;;
44995;SDS011;30729;49.486;10.792;2022-09-09T09:44:01;3.85;;;0.82;;
44995;SDS011;30729;49.486;10.792;2022-09-09T09:46:28;3.97;;;0.63;;
44995;SDS011;30729;49.486;10.792;2022-09-09T09:48:57;3.42;;;0.65;;
44995;SDS011;30729;49.486;10.792;2022-09-09T09:51:27;4.95;;;0.80;;
44995;SDS011;30729;49.486;10.792;2022-09-09T09:54:08;4.70;;;1.15;;
44995;SDS011;30729;49.486;10.792;2022-09-09T09:56:41;6.47;;;0.90;;
44995;SDS011;30729;49.486;10.792;2022-09-09T09:59:21;3.88;;;0.70;;
44995;SDS011;30729;49.486;10.792;2022-09-09T10:02:18;3.35;;;1.00;;
44995;SDS011;30729;49.486;10.792;2022-09-09T10:04:46;1.98;;;0.70;;
44995;SDS011;30729;49.486;10.792;2022-09-09T10:07:21;4.40;;;0.95;;
44995;SDS011;30729;49.486;10.792;2022-09-09T10:09:54;3.75;;;1.00;;
44995;SDS011;30729;49.486;10.792;2022-09-09T10:14:57;4.18;;;0.85;;
44995;SDS011;30729;49.486;10.792;2022-09-09T10:17:33;4.13;;;0.90;;
44995;SDS011;30729;49.486;10.792;2022-09-09T10:22:40;3.38;;;0.70;;
44995;SDS011;30729;49.486;10.792;2022-09-09T10:30:46;4.63;;;0.88;;
44995;SDS011;30729;49.486;10.792;2022-09-09T10:33:18;4.75;;;0.80;;
44995;SDS011;30729;49.486;10.792;2022-09-09T10:36:05;3.67;;;0.88;;
44995;SDS011;30729;49.486;10.792;2022-09-09T10:38:48;5.13;;;0.70;;
44995;SDS011;30729;49.486;10.792;2022-09-09T10:41:40;4.05;;;0.77;;
44995;SDS011;30729;49.486;10.792;2022-09-09T10:57:50;3.40;;;0.73;;
44995;SDS011;30729;49.486;10.792;2022-09-09T11:00:22;7.53;;;0.85;;
44995;SDS011;30729;49.486;10.792;2022-09-09T11:02:56;2.83;;;0.75;;
44995;SDS011;30729;49.486;10.792;2022-09-09T11:05:27;3.03;;;0.73;;
44995;SDS011;30729;49.486;10.792;2022-09-09T11:08:03;3.17;;;0.82;;
44995;SDS011;30729;49.486;10.792;2022-09-09T11:13:55;7.55;;;0.93;;
44995;SDS011;30729;49.486;10.792;2022-09-09T11:19:03;4.15;;;0.75;;
44995;SDS011;30729;49.486;10.792;2022-09-09T11:21:37;2.75;;;0.73;;
44995;SDS011;30729;49.486;10.792;2022-09-09T11:24:32;4.82;;;0.90;;
44995;SDS011;30729;49.486;10.792;2022-09-09T11:32:17;3.83;;;0.77;;
44995;SDS011;30729;49.486;10.792;2022-09-09T11:35:07;2.63;;;0.73;;
44995;SDS011;30729;49.486;10.792;2022-09-09T11:37:51;1.90;;;0.80;;
44995;SDS011;30729;49.486;10.792;2022-09-09T11:40:23;3.75;;;0.82;;
44995;SDS011;30729;49.486;10.792;2022-09-09T11:43:03;4.05;;;1.10;;
44995;SDS011;30729;49.486;10.792;2022-09-09T11:45:31;5.53;;;1.13;;
44995;SDS011;30729;49.486;10.792;2022-09-09T11:47:59;2.13;;;0.77;;
44995;SDS011;30729;49.486;10.792;2022-09-09T11:53:02;4.80;;;0.80;;
44995;SDS011;30729;49.486;10.792;2022-09-09T11:55:59;4.80;;;1.23;;
44995;SDS011;30729;49.486;10.792;2022-09-09T11:58:28;3.17;;;1.00;;
44995;SDS011;30729;49.486;10.792;2022-09-09T12:01:01;4.95;;;0.88;;
44995;SDS011;30729;49.486;10.792;2022-09-09T12:03:46;5.00;;;0.98;;
44995;SDS011;30729;49.486;10.792;2022-09-09T12:08:55;4.20;;;0.88;;
44995;SDS011;30729;49.486;10.792;2022-09-09T12:11:30;3.28;;;0.60;;
44995;SDS011;30729;49.486;10.792;2022-09-09T12:13:56;3.75;;;0.90;;
44995;SDS011;30729;49.486;10.792;2022-09-09T12:16:34;3.65;;;0.77;;
44995;SDS011;30729;49.486;10.792;2022-09-09T12:19:24;4.53;;;0.93;;
44995;SDS011;30729;49.486;10.792;2022-09-09T12:21:51;5.72;;;0.88;;
44995;SDS011;30729;49.486;10.792;2022-09-09T12:24:37;2.60;;;0.65;;
44995;SDS011;30729;49.486;10.792;2022-09-09T12:32:27;3.00;;;1.13;;
44995;SDS011;30729;49.486;10.792;2022-09-09T12:34:55;4.72;;;0.88;;
44995;SDS011;30729;49.486;10.792;2022-09-09T12:39:59;4.32;;;1.05;;
44995;SDS011;30729;49.486;10.792;2022-09-09T12:42:28;4.53;;;0.82;;
44995;SDS011;30729;49.486;10.792;2022-09-09T12:44:57;6.00;;;1.15;;
44995;SDS011;30729;49.486;10.792;2022-09-09T12:47:30;8.35;;;1.58;;
44995;SDS011;30729;49.486;10.792;2022-09-09T12:50:14;5.45;;;1.02;;
44995;SDS011;30729;49.486;10.792;2022-09-09T12:52:48;6.82;;;1.02;;
44995;SDS011;30729;49.486;10.792;2022-09-09T12:55:18;4.28;;;1.00;;
44995;SDS011;30729;49.486;10.792;2022-09-09T12:57:46;2.78;;;0.88;;
44995;SDS011;30729;49.486;10.792;2022-09-09T13:00:16;4.13;;;1.63;;
44995;SDS011;30729;49.486;10.792;2022-09-09T13:02:48;7.05;;;1.90;;
44995;SDS011;30729;49.486;10.792;2022-09-09T13:05:22;4.93;;;2.03;;
44995;SDS011;30729;49.486;10.792;2022-09-09T13:07:49;3.08;;;0.88;;
44995;SDS011;30729;49.486;10.792;2022-09-09T13:10:19;9.95;;;1.70;;
44995;SDS011;30729;49.486;10.792;2022-09-09T13:12:48;5.82;;;0.82;;
44995;SDS011;30729;49.486;10.792;2022-09-09T13:15:16;6.18;;;0.90;;
44995;SDS011;30729;49.486;10.792;2022-09-09T13:17:51;6.30;;;1.13;;
44995;SDS011;30729;49.486;10.792;2022-09-09T13:20:20;6.13;;;1.48;;
44995;SDS011;30729;49.486;10.792;2022-09-09T13:22:47;4.53;;;0.88;;
44995;SDS011;30729;49.486;10.792;2022-09-09T13:25:19;5.50;;;1.30;;
44995;SDS011;30729;49.486;10.792;2022-09-09T13:27:55;7.68;;;1.30;;
44995;SDS011;30729;49.486;10.792;2022-09-09T13:35:30;4.60;;;1.75;;
44995;SDS011;30729;49.486;10.792;2022-09-09T13:37:57;4.53;;;1.17;;
44995;SDS011;30729;49.486;10.792;2022-09-09T13:40:24;7.22;;;1.17;;
44995;SDS011;30729;49.486;10.792;2022-09-09T13:42:54;7.30;;;1.40;;
44995;SDS011;30729;49.486;10.792;2022-09-09T13:45:22;7.13;;;1.50;;
44995;SDS011;30729;49.486;10.792;2022-09-09T13:47:51;6.07;;;1.20;;
44995;SDS011;30729;49.486;10.792;2022-09-09T13:50:27;7.90;;;1.48;;
44995;SDS011;30729;49.486;10.792;2022-09-09T13:52:54;6.53;;;1.30;;
44995;SDS011;30729;49.486;10.792;2022-09-09T13:55:23;5.78;;;1.25;;
44995;SDS011;30729;49.486;10.792;2022-09-09T13:57:50;6.70;;;1.30;;
44995;SDS011;30729;49.486;10.792;2022-09-09T14:00:17;5.95;;;1.35;;
44995;SDS011;30729;49.486;10.792;2022-09-09T14:02:43;8.07;;;1.40;;
44995;SDS011;30729;49.486;10.792;2022-09-09T14:05:09;5.97;;;1.30;;
44995;SDS011;30729;49.486;10.792;2022-09-09T14:07:36;7.20;;;1.20;;
44995;SDS011;30729;49.486;10.792;2022-09-09T14:10:03;6.88;;;1.60;;
44995;SDS011;30729;49.486;10.792;2022-09-09T14:12:29;11.07;;;1.52;;
44995;SDS011;30729;49.486;10.792;2022-09-09T14:14:54;5.60;;;1.30;;
44995;SDS011;30729;49.486;10.792;2022-09-09T14:17:20;5.30;;;1.00;;
44995;SDS011;30729;49.486;10.792;2022-09-09T14:19:47;6.75;;;1.17;;
44995;SDS011;30729;49.486;10.792;2022-09-09T14:22:12;5.50;;;1.10;;
44995;SDS011;30729;49.486;10.792;2022-09-09T14:24:38;6.85;;;1.10;;
44995;SDS011;30729;49.486;10.792;2022-09-09T14:27:03;6.20;;;1.48;;
44995;SDS011;30729;49.486;10.792;2022-09-09T14:29:28;5.95;;;1.27;;
44995;SDS011;30729;49.486;10.792;2022-09-09T14:31:54;4.82;;;1.05;;
44995;SDS011;30729;49.486;10.792;2022-09-09T14:34:19;5.35;;;1.23;;
44995;SDS011;30729;49.486;10.792;2022-09-09T14:36:45;4.63;;;1.20;;
44995;SDS011;30729;49.486;10.792;2022-09-09T14:39:10;4.32;;;1.25;;
44995;SDS011;30729;49.486;10.792;2022-09-09T14:41:36;4.68;;;1.00;;
44995;SDS011;30729;49.486;10.792;2022-09-09T14:44:01;5.85;;;0.88;;
44995;SDS011;30729;49.486;10.792;2022-09-09T14:46:26;2.92;;;0.80;;
44995;SDS011;30729;49.486;10.792;2022-09-09T14:48:52;4.30;;;0.75;;
44995;SDS011;30729;49.486;10.792;2022-09-09T14:51:19;3.00;;;0.90;;
44995;SDS011;30729;49.486;10.792;2022-09-09T14:53:52;4.72;;;0.90;;
44995;SDS011;30729;49.486;10.792;2022-09-09T14:56:20;3.25;;;0.80;;
44995;SDS011;30729;49.486;10.792;2022-09-09T14:58:48;6.00;;;1.35;;
44995;SDS011;30729;49.486;10.792;2022-09-09T15:01:14;3.60;;;0.70;;
44995;SDS011;30729;49.486;10.792;2022-09-09T15:03:42;7.88;;;0.93;;
44995;SDS011;30729;49.486;10.792;2022-09-09T15:06:13;3.15;;;0.80;;
44995;SDS011;30729;49.486;10.792;2022-09-09T15:08:43;2.92;;;0.88;;
44995;SDS011;30729;49.486;10.792;2022-09-09T15:11:10;4.35;;;0.95;;
44995;SDS011;30729;49.486;10.792;2022-09-09T15:13:37;3.40;;;0.60;;
44995;SDS011;30729;49.486;10.792;2022-09-09T15:16:08;4.22;;;0.88;;
44995;SDS011;30729;49.486;10.792;2022-09-09T15:18:37;1.95;;;0.60;;
44995;SDS011;30729;49.486;10.792;2022-09-09T15:21:07;4.22;;;0.93;;
44995;SDS011;30729;49.486;10.792;2022-09-09T15:23:37;4.07;;;1.55;;
44995;SDS011;30729;49.486;10.792;2022-09-09T15:26:03;8.30;;;4.22;;
44995;SDS011;30729;49.486;10.792;2022-09-09T15:28:29;7.13;;;3.88;;
44995;SDS011;30729;49.486;10.792;2022-09-09T15:30:57;1.17;;;0.60;;
44995;SDS011;30729;49.486;10.792;2022-09-09T15:33:23;2.53;;;1.10;;
44995;SDS011;30729;49.486;10.792;2022-09-09T15:35:48;6.32;;;0.98;;
44995;SDS011;30729;49.486;10.792;2022-09-09T15:38:14;2.97;;;1.10;;
44995;SDS011;30729;49.486;10.792;2022-09-09T15:40:41;3.80;;;1.40;;
44995;SDS011;30729;49.486;10.792;2022-09-09T15:43:07;2.05;;;0.70;;
44995;SDS011;30729;49.486;10.792;2022-09-09T15:45:35;1.85;;;0.80;;
44995;SDS011;30729;49.486;10.792;2022-09-09T15:48:01;2.00;;;0.70;;
44995;SDS011;30729;49.486;10.792;2022-09-09T15:50:28;1.33;;;0.60;;
44995;SDS011;30729;49.486;10.792;2022-09-09T15:52:57;0.93;;;0.40;;
44995;SDS011;30729;49.486;10.792;2022-09-09T15:55:23;3.35;;;0.50;;
44995;SDS011;30729;49.486;10.792;2022-09-09T15:57:51;3.35;;;0.50;;
44995;SDS011;30729;49.486;10.792;2022-09-09T16:00:20;2.45;;;0.77;;
44995;SDS011;30729;49.486;10.792;2022-09-09T16:02:48;2.22;;;0.63;;
44995;SDS011;30729;49.486;10.792;2022-09-09T16:05:14;5.35;;;0.60;;
44995;SDS011;30729;49.486;10.792;2022-09-09T16:07:39;2.38;;;0.55;;
44995;SDS011;30729;49.486;10.792;2022-09-09T16:10:05;5.57;;;0.75;;
44995;SDS011;30729;49.486;10.792;2022-09-09T16:12:31;1.45;;;0.60;;
44995;SDS011;30729;49.486;10.792;2022-09-09T16:14:56;4.22;;;0.70;;
44995;SDS011;30729;49.486;10.792;2022-09-09T16:17:21;2.38;;;0.40;;
44995;SDS011;30729;49.486;10.792;2022-09-09T16:19:47;3.35;;;0.60;;
44995;SDS011;30729;49.486;10.792;2022-09-09T16:22:12;0.63;;;0.40;;
44995;SDS011;30729;49.486;10.792;2022-09-09T16:24:40;2.80;;;0.60;;
44995;SDS011;30729;49.486;10.792;2022-09-09T16:27:05;1.85;;;0.63;;
44995;SDS011;30729;49.486;10.792;2022-09-09T16:29:31;1.42;;;0.50;;
44995;SDS011;30729;49.486;10.792;2022-09-09T16:31:57;1.73;;;0.52;;
44995;SDS011;30729;49.486;10.792;2022-09-09T16:34:23;2.85;;;1.08;;
44995;SDS011;30729;49.486;10.792;2022-09-09T16:36:50;2.55;;;0.70;;
44995;SDS011;30729;49.486;10.792;2022-09-09T16:39:17;2.45;;;0.55;;
44995;SDS011;30729;49.486;10.792;2022-09-09T16:41:44;1.75;;;0.40;;
44995;SDS011;30729;49.486;10.792;2022-09-09T16:44:11;0.93;;;0.40;;
44995;SDS011;30729;49.486;10.792;2022-09-09T16:46:38;2.85;;;0.50;;